Time;durP1;ratioP1;P1;durP2;ratioP2;P2;SDS_P1;SDS_P2;PMS_P1;PMS_P2;Temp;Humidity;BMP_temperature;BMP_pressure;BME280_temperature;BME280_humidity;BME280_pressure;Samples;Min_cycle;Max_cycle;Signal;HPM_P1;HPM_P2
2022/07/06 00:01:38;;;;;;;4.40;1.40;;;14.90;99.90;;;;;;5028016;28;20068;-64
2022/07/06 00:04:04;;;;;;;4.15;1.42;;;14.90;99.90;;;;;;5033817;28;20055;-63
2022/07/06 00:06:30;;;;;;;4.15;1.20;;;14.90;99.90;;;;;;5033656;28;20093;-63
2022/07/06 00:08:57;;;;;;;6.13;1.23;;;14.90;99.90;;;;;;5028722;28;20144;-63
2022/07/06 00:11:23;;;;;;;5.53;1.23;;;14.90;99.90;;;;;;5030561;28;20072;-63
2022/07/06 00:13:49;;;;;;;4.47;1.40;;;14.90;99.90;;;;;;5031516;28;20032;-63
2022/07/06 00:16:14;;;;;;;3.13;1.25;;;15.00;99.90;;;;;;5034965;28;20044;-62
2022/07/06 00:18:40;;;;;;;6.28;1.15;;;15.00;99.90;;;;;;5032676;28;20352;-63
2022/07/06 00:21:06;;;;;;;4.65;1.30;;;15.00;99.90;;;;;;5029067;28;20160;-63
2022/07/06 00:23:31;;;;;;;4.65;1.20;;;15.00;99.90;;;;;;5033469;28;20098;-63
2022/07/06 00:25:57;;;;;;;4.85;1.50;;;15.00;99.90;;;;;;5033635;28;20363;-63
2022/07/06 00:28:23;;;;;;;3.28;1.20;;;15.00;99.90;;;;;;5037328;28;20563;-63
2022/07/06 00:30:49;;;;;;;1.70;1.10;;;15.00;99.90;;;;;;5034253;28;20037;-64
2022/07/06 00:33:15;;;;;;;5.53;1.50;;;15.10;99.90;;;;;;5034471;28;20064;-64
2022/07/06 00:35:40;;;;;;;5.07;1.38;;;15.10;99.90;;;;;;5033334;28;20034;-64
2022/07/06 00:38:06;;;;;;;2.10;1.00;;;15.20;99.90;;;;;;5036160;28;20120;-63
2022/07/06 00:40:32;;;;;;;2.15;1.00;;;15.20;99.90;;;;;;5033271;28;20477;-63
2022/07/06 00:42:58;;;;;;;4.78;1.52;;;15.30;99.90;;;;;;5036483;28;20446;-64
2022/07/06 00:45:23;;;;;;;5.53;1.30;;;15.30;99.90;;;;;;5028027;28;20044;-64
2022/07/06 00:47:50;;;;;;;5.53;1.30;;;15.20;99.90;;;;;;5022131;28;20053;-63
2022/07/06 00:50:20;;;;;;;3.92;1.00;;;15.30;99.90;;;;;;5028237;28;20481;-63
2022/07/06 00:52:54;;;;;;;3.08;1.17;;;15.30;99.90;;;;;;5030672;28;20480;-64
2022/07/06 00:55:25;;;;;;;3.00;1.08;;;15.30;99.90;;;;;;5039992;28;20086;-64
2022/07/06 00:57:51;;;;;;;4.35;1.30;;;15.30;99.90;;;;;;5032904;28;20037;-63
2022/07/06 01:00:22;;;;;;;5.85;1.63;;;15.30;99.90;;;;;;5051805;28;20025;-63
2022/07/06 01:02:49;;;;;;;3.25;1.00;;;15.30;99.90;;;;;;5036075;28;20533;-63
2022/07/06 01:05:15;;;;;;;6.05;1.38;;;15.30;99.90;;;;;;5031342;28;20047;-64
2022/07/06 01:07:43;;;;;;;3.20;1.00;;;15.40;99.90;;;;;;5036941;28;20080;-64
2022/07/06 01:10:11;;;;;;;5.07;1.40;;;15.30;99.90;;;;;;5053458;28;20091;-64
2022/07/06 01:12:39;;;;;;;5.03;1.10;;;15.40;99.90;;;;;;5035510;28;20355;-63
2022/07/06 01:15:07;;;;;;;5.05;1.27;;;15.20;99.90;;;;;;5031879;28;20063;-63
2022/07/06 01:17:33;;;;;;;3.15;1.02;;;15.30;99.90;;;;;;5035654;28;20136;-66
2022/07/06 01:20:09;;;;;;;2.40;1.13;;;15.30;99.90;;;;;;5037450;28;20041;-64
2022/07/06 01:22:35;;;;;;;2.47;1.08;;;15.30;99.90;;;;;;5014782;28;20501;-63
2022/07/06 01:25:01;;;;;;;3.25;1.23;;;15.20;99.90;;;;;;5051772;28;20044;-63
2022/07/06 01:27:28;;;;;;;4.15;1.10;;;15.20;99.90;;;;;;5042390;28;20084;-64
2022/07/06 01:29:54;;;;;;;3.80;1.10;;;15.20;99.90;;;;;;5039210;28;20075;-63
2022/07/06 01:32:19;;;;;;;4.78;1.58;;;15.20;99.90;;;;;;5035452;28;20077;-63
2022/07/06 01:34:45;;;;;;;5.43;1.50;;;15.10;99.90;;;;;;5035166;28;20055;-64
2022/07/06 01:37:11;;;;;;;2.72;1.05;;;15.00;99.90;;;;;;5033902;28;20079;-65
2022/07/06 01:39:36;;;;;;;3.40;1.20;;;15.10;99.90;;;;;;5020961;28;20043;-64
2022/07/06 01:42:02;;;;;;;4.45;1.30;;;15.00;99.90;;;;;;5022763;28;20112;-65
2022/07/06 01:44:28;;;;;;;4.70;1.60;;;15.00;99.90;;;;;;5033554;28;20041;-64
2022/07/06 01:46:54;;;;;;;6.68;1.65;;;15.00;99.90;;;;;;5034833;28;20405;-64
2022/07/06 01:49:19;;;;;;;3.33;1.23;;;15.00;99.90;;;;;;5039486;28;20033;-64
2022/07/06 01:51:45;;;;;;;4.00;1.33;;;15.00;99.90;;;;;;5019407;28;20445;-64
2022/07/06 01:54:10;;;;;;;3.03;1.35;;;15.00;99.90;;;;;;5038285;28;20033;-65
2022/07/06 01:56:36;;;;;;;3.78;1.45;;;15.00;99.90;;;;;;5026123;28;20087;-63
2022/07/06 01:59:02;;;;;;;6.72;1.50;;;15.00;99.90;;;;;;5037404;28;20451;-63
2022/07/06 02:01:27;;;;;;;4.85;1.45;;;15.00;99.90;;;;;;5032437;28;20041;-63
2022/07/06 02:03:53;;;;;;;3.92;1.60;;;15.00;99.90;;;;;;5014243;28;20094;-63
2022/07/06 02:06:19;;;;;;;4.88;1.30;;;15.10;99.90;;;;;;5031772;28;20047;-65
2022/07/06 02:08:44;;;;;;;3.17;1.35;;;15.10;99.90;;;;;;5012511;28;20581;-64
2022/07/06 02:11:10;;;;;;;4.70;1.60;;;15.10;99.90;;;;;;5033435;28;20051;-65
2022/07/06 02:13:37;;;;;;;3.65;1.40;;;15.10;99.90;;;;;;5013495;28;20045;-63
2022/07/06 02:16:03;;;;;;;5.25;1.52;;;15.10;99.90;;;;;;5027767;28;20135;-63
2022/07/06 02:18:29;;;;;;;3.30;1.17;;;15.00;99.90;;;;;;5031138;28;20036;-64
2022/07/06 02:20:55;;;;;;;4.28;1.00;;;15.10;99.90;;;;;;5035153;28;20053;-63
2022/07/06 02:23:20;;;;;;;4.60;1.20;;;15.10;99.90;;;;;;5034798;28;20507;-63
2022/07/06 02:25:46;;;;;;;4.35;1.60;;;15.10;99.90;;;;;;5030776;28;20128;-63
2022/07/06 02:28:12;;;;;;;3.97;1.27;;;15.10;99.90;;;;;;5037282;28;20080;-64
2022/07/06 02:30:37;;;;;;;3.30;1.08;;;15.20;99.90;;;;;;5032095;28;20330;-63
2022/07/06 02:33:03;;;;;;;6.07;1.20;;;15.20;99.90;;;;;;5032271;28;20049;-63
2022/07/06 02:35:29;;;;;;;3.97;1.08;;;15.20;99.90;;;;;;5031656;28;20094;-65
2022/07/06 02:37:55;;;;;;;5.13;1.33;;;15.20;99.90;;;;;;5031983;28;20071;-64
2022/07/06 02:40:20;;;;;;;8.02;1.50;;;15.20;99.90;;;;;;5033850;28;20098;-64
2022/07/06 02:42:46;;;;;;;6.65;1.50;;;15.30;99.90;;;;;;5031093;28;20041;-63
2022/07/06 02:45:12;;;;;;;4.90;1.35;;;15.20;99.90;;;;;;5028850;28;20044;-64
2022/07/06 02:47:38;;;;;;;4.68;1.25;;;15.20;99.90;;;;;;5026204;28;20493;-65
2022/07/06 02:50:04;;;;;;;6.80;1.60;;;15.20;99.90;;;;;;5015348;28;20064;-64
2022/07/06 02:52:30;;;;;;;4.47;1.30;;;15.20;99.90;;;;;;5012122;28;20375;-64
2022/07/06 02:54:56;;;;;;;5.47;1.73;;;15.30;99.90;;;;;;5029088;28;20036;-64
2022/07/06 02:57:21;;;;;;;4.68;1.02;;;15.30;99.90;;;;;;5030600;28;20438;-63
2022/07/06 02:59:49;;;;;;;5.90;1.17;;;15.30;99.90;;;;;;5034167;28;20698;-63
2022/07/06 03:02:16;;;;;;;6.60;1.30;;;15.20;99.90;;;;;;5031984;28;20036;-64
2022/07/06 03:04:41;;;;;;;5.75;1.00;;;15.40;99.90;;;;;;5034027;28;20040;-63
2022/07/06 03:07:07;;;;;;;4.88;1.40;;;15.30;99.90;;;;;;5026255;28;20043;-64
2022/07/06 03:09:34;;;;;;;6.80;1.20;;;15.30;99.90;;;;;;5024964;28;20105;-63
2022/07/06 03:12:00;;;;;;;3.10;1.00;;;15.30;99.90;;;;;;5037602;28;20487;-63
2022/07/06 03:14:26;;;;;;;2.47;1.00;;;15.30;99.90;;;;;;5028838;28;20048;-63
2022/07/06 03:16:52;;;;;;;3.78;1.20;;;15.30;99.90;;;;;;5014518;28;20099;-63
2022/07/06 03:19:18;;;;;;;5.78;1.40;;;15.40;99.90;;;;;;5031420;28;20123;-64
2022/07/06 03:21:43;;;;;;;4.15;1.17;;;15.30;99.90;;;;;;5030854;28;20056;-63
2022/07/06 03:24:09;;;;;;;3.67;1.08;;;15.30;99.90;;;;;;5028705;28;20047;-63
2022/07/06 03:26:35;;;;;;;4.63;1.10;;;15.30;99.90;;;;;;5027872;28;20049;-64
2022/07/06 03:29:00;;;;;;;1.90;1.02;;;15.30;99.90;;;;;;5030301;28;20036;-63
2022/07/06 03:31:26;;;;;;;5.22;1.00;;;15.30;99.90;;;;;;5034173;28;20044;-63
2022/07/06 03:33:52;;;;;;;3.15;1.25;;;15.30;99.90;;;;;;5031251;28;20087;-63
2022/07/06 03:36:18;;;;;;;3.97;1.20;;;15.30;99.90;;;;;;5027484;28;20037;-63
2022/07/06 03:38:43;;;;;;;3.83;1.00;;;15.30;99.90;;;;;;5032711;28;20037;-63
2022/07/06 03:41:09;;;;;;;4.13;1.30;;;15.30;99.90;;;;;;5032867;28;20513;-64
2022/07/06 03:43:35;;;;;;;2.72;1.13;;;15.30;99.90;;;;;;5030152;28;20044;-63
2022/07/06 03:46:01;;;;;;;5.25;1.10;;;15.30;99.90;;;;;;5030157;28;20552;-64
2022/07/06 03:48:27;;;;;;;3.58;1.10;;;15.20;99.90;;;;;;5030533;28;20041;-63
2022/07/06 03:50:56;;;;;;;3.83;1.60;;;15.30;99.90;;;;;;5032689;28;20069;-63
2022/07/06 03:53:22;;;;;;;5.15;1.00;;;15.30;99.90;;;;;;5031809;28;20424;-64
2022/07/06 03:58:33;;;;;;;5.82;1.20;;;15.20;99.90;;;;;;5043315;28;20052;-64
2022/07/06 04:01:02;;;;;;;4.50;1.25;;;15.20;99.90;;;;;;5029643;28;20040;-64
2022/07/06 04:03:28;;;;;;;4.82;1.10;;;15.20;99.90;;;;;;5031124;28;20049;-63
2022/07/06 04:05:54;;;;;;;4.75;1.02;;;15.10;99.90;;;;;;5027033;28;20509;-63
2022/07/06 04:08:19;;;;;;;5.63;1.23;;;15.10;99.90;;;;;;5049230;28;20052;-63
2022/07/06 04:10:45;;;;;;;7.15;1.27;;;15.10;99.90;;;;;;5033703;28;20051;-64
2022/07/06 04:13:11;;;;;;;8.43;1.15;;;15.00;99.90;;;;;;5030669;28;20465;-64
2022/07/06 04:15:37;;;;;;;5.85;1.30;;;15.00;99.90;;;;;;5031241;28;20036;-64
2022/07/06 04:18:03;;;;;;;3.85;1.40;;;15.00;99.90;;;;;;5019412;28;20076;-64
2022/07/06 04:20:29;;;;;;;4.63;1.33;;;14.90;99.90;;;;;;5024286;28;20041;-66
2022/07/06 04:22:55;;;;;;;2.80;1.17;;;15.00;99.90;;;;;;5015528;28;20355;-64
2022/07/06 04:25:21;;;;;;;2.05;1.30;;;14.90;99.90;;;;;;5029224;28;20055;-64
2022/07/06 04:27:47;;;;;;;7.00;1.33;;;14.90;99.90;;;;;;5022141;28;20127;-65
2022/07/06 04:30:13;;;;;;;2.30;1.10;;;14.90;99.90;;;;;;5005165;28;20745;-65
2022/07/06 04:32:39;;;;;;;5.15;1.45;;;14.90;99.90;;;;;;5011342;28;20099;-64
2022/07/06 04:35:09;;;;;;;4.28;1.33;;;15.00;99.90;;;;;;5020291;28;20045;-64
2022/07/06 04:37:38;;;;;;;3.65;1.25;;;15.10;99.90;;;;;;5035788;28;20094;-64
2022/07/06 04:40:05;;;;;;;4.30;1.85;;;15.20;99.90;;;;;;5021018;28;20124;-64
2022/07/06 04:42:30;;;;;;;5.28;1.70;;;15.30;99.90;;;;;;5023661;28;20129;-64
2022/07/06 04:44:56;;;;;;;4.03;1.30;;;15.30;99.90;;;;;;5021649;28;20132;-64
2022/07/06 04:47:21;;;;;;;6.32;1.52;;;15.40;99.90;;;;;;5021523;28;20053;-66
2022/07/06 04:49:47;;;;;;;4.45;1.30;;;15.30;99.90;;;;;;5021945;28;20042;-64
2022/07/06 04:52:13;;;;;;;4.95;1.55;;;15.40;99.90;;;;;;5016661;28;20053;-64
2022/07/06 04:54:38;;;;;;;4.18;1.38;;;15.40;99.90;;;;;;5025932;28;20037;-64
2022/07/06 04:57:04;;;;;;;3.25;1.30;;;15.50;99.90;;;;;;5021258;28;20520;-63
2022/07/06 04:59:30;;;;;;;5.38;1.55;;;15.50;99.90;;;;;;5022910;28;20043;-64
2022/07/06 05:01:55;;;;;;;4.70;1.50;;;15.60;99.90;;;;;;5023975;28;20033;-65
2022/07/06 05:04:22;;;;;;;3.45;1.05;;;15.60;99.90;;;;;;5004778;28;20044;-65
2022/07/06 05:06:47;;;;;;;6.20;1.40;;;15.70;99.90;;;;;;5028518;28;20052;-64
2022/07/06 05:09:13;;;;;;;4.05;1.05;;;15.80;99.90;;;;;;5013145;28;20041;-64
2022/07/06 05:11:40;;;;;;;5.57;1.30;;;15.90;99.90;;;;;;5009954;28;20049;-64
2022/07/06 05:14:06;;;;;;;5.88;1.20;;;15.90;99.90;;;;;;5001876;28;20415;-64
2022/07/06 05:16:33;;;;;;;3.63;1.00;;;16.00;99.90;;;;;;5028360;28;20037;-64
2022/07/06 05:18:58;;;;;;;3.83;1.27;;;16.00;99.90;;;;;;5012847;28;20084;-63
2022/07/06 05:21:24;;;;;;;5.97;1.35;;;16.00;99.90;;;;;;5021903;28;20049;-64
2022/07/06 05:23:51;;;;;;;5.88;1.15;;;16.10;99.90;;;;;;5016925;28;20107;-64
2022/07/06 05:26:16;;;;;;;3.90;1.13;;;16.90;99.90;;;;;;5034215;28;20055;-64
2022/07/06 05:28:42;;;;;;;6.22;1.25;;;17.80;99.90;;;;;;5036136;28;20131;-65
2022/07/06 05:31:08;;;;;;;11.55;1.88;;;18.40;99.90;;;;;;5038489;28;20045;-64
2022/07/06 05:33:34;;;;;;;3.83;1.00;;;19.20;99.90;;;;;;5048106;28;20069;-65
2022/07/06 05:35:59;;;;;;;3.05;1.08;;;19.90;99.90;;;;;;5048255;28;20478;-65
2022/07/06 05:38:25;;;;;;;3.22;0.88;;;20.40;99.90;;;;;;5035201;28;20029;-64
2022/07/06 05:40:51;;;;;;;3.90;1.00;;;20.90;99.90;;;;;;5050946;28;20187;-65
2022/07/06 05:43:17;;;;;;;4.05;1.20;;;21.40;99.90;;;;;;5032733;28;20118;-64
2022/07/06 05:45:43;;;;;;;4.63;1.08;;;22.00;99.90;;;;;;5030206;28;20071;-63
2022/07/06 05:50:53;;;;;;;;;;;22.50;99.70;;;;;;5031581;28;20057;-64
2022/07/06 05:53:18;;;;;;;6.75;1.27;;;23.20;99.10;;;;;;5052129;28;20023;-64
2022/07/06 05:55:45;;;;;;;7.20;1.10;;;23.70;99.10;;;;;;5053431;28;20040;-62
2022/07/06 05:58:10;;;;;;;2.38;0.82;;;23.80;98.00;;;;;;5034297;28;20128;-63
2022/07/06 06:00:36;;;;;;;5.10;1.52;;;23.80;97.70;;;;;;5034582;28;20426;-64
2022/07/06 06:03:02;;;;;;;5.30;1.27;;;23.80;97.50;;;;;;5050649;28;20037;-63
2022/07/06 06:05:27;;;;;;;3.63;0.90;;;23.40;97.20;;;;;;5053508;28;20055;-63
2022/07/06 06:07:53;;;;;;;3.78;0.70;;;23.50;97.20;;;;;;5047616;28;20414;-63
2022/07/06 06:10:21;;;;;;;3.00;0.82;;;23.30;96.80;;;;;;5031110;28;20107;-62
2022/07/06 06:12:47;;;;;;;4.85;1.02;;;22.80;97.00;;;;;;5032067;28;20045;-63
2022/07/06 06:15:13;;;;;;;5.15;1.08;;;21.70;97.70;;;;;;5030083;28;20041;-62
2022/07/06 06:17:39;;;;;;;5.15;1.75;;;20.60;99.00;;;;;;5018672;28;20040;-62
2022/07/06 06:20:09;;;;;;;4.53;1.20;;;20.00;99.90;;;;;;5027204;28;20052;-63
2022/07/06 06:22:49;;;;;;;3.95;0.95;;;19.40;99.90;;;;;;5022378;28;20058;-64
2022/07/06 06:25:18;;;;;;;2.15;0.80;;;18.80;99.90;;;;;;5018052;28;20374;-65
2022/07/06 06:27:44;;;;;;;3.35;0.93;;;18.60;99.90;;;;;;5030946;28;20049;-63
2022/07/06 06:30:10;;;;;;;5.22;1.30;;;18.30;99.90;;;;;;5014311;28;20343;-63
2022/07/06 06:32:36;;;;;;;5.95;1.52;;;18.10;99.90;;;;;;5037088;28;20496;-63
2022/07/06 06:35:03;;;;;;;4.57;1.27;;;18.10;99.90;;;;;;5040423;28;20032;-63
2022/07/06 06:37:32;;;;;;;7.15;1.85;;;18.10;99.90;;;;;;5036276;28;20029;-61
2022/07/06 06:39:57;;;;;;;5.57;1.63;;;18.00;99.90;;;;;;5018136;28;20044;-62
2022/07/06 06:42:23;;;;;;;6.82;1.30;;;18.00;99.90;;;;;;5021485;28;20045;-62
2022/07/06 06:44:49;;;;;;;4.82;1.58;;;18.00;99.90;;;;;;5018169;28;20044;-62
2022/07/06 06:47:14;;;;;;;4.25;1.40;;;18.00;99.90;;;;;;5014779;28;20099;-62
2022/07/06 06:49:40;;;;;;;5.10;1.42;;;17.90;99.90;;;;;;5039432;28;20052;-63
2022/07/06 06:52:06;;;;;;;2.97;0.98;;;17.90;99.90;;;;;;5036090;28;20033;-62
2022/07/06 06:54:31;;;;;;;1.83;0.70;;;17.90;99.90;;;;;;5019236;28;20039;-62
2022/07/06 06:56:57;;;;;;;2.70;0.90;;;17.90;99.90;;;;;;5040570;28;20045;-62
2022/07/06 06:59:23;;;;;;;2.88;0.73;;;17.70;99.90;;;;;;5042044;28;20136;-62
2022/07/06 07:01:49;;;;;;;3.90;1.33;;;17.70;99.90;;;;;;5018141;28;20434;-62
2022/07/06 07:04:15;;;;;;;3.13;1.20;;;17.90;99.90;;;;;;5017269;28;20044;-62
2022/07/06 07:06:40;;;;;;;2.38;0.82;;;18.00;99.90;;;;;;5036075;28;20037;-63
2022/07/06 07:09:06;;;;;;;6.10;1.30;;;18.10;99.90;;;;;;5017563;28;20057;-62
2022/07/06 07:11:32;;;;;;;3.78;0.90;;;18.10;99.90;;;;;;5040820;28;20119;-62
2022/07/06 07:13:57;;;;;;;3.45;0.80;;;18.20;99.90;;;;;;5018991;28;20103;-62
2022/07/06 07:16:26;;;;;;;5.53;1.33;;;18.50;99.90;;;;;;5019376;28;20323;-62
2022/07/06 07:18:52;;;;;;;3.47;1.05;;;18.60;99.90;;;;;;5015346;28;20068;-63
2022/07/06 07:21:18;;;;;;;2.67;0.70;;;18.60;99.90;;;;;;5013393;28;20219;-64
2022/07/06 07:23:43;;;;;;;4.50;1.27;;;18.90;99.90;;;;;;5012488;28;20061;-63
2022/07/06 07:26:09;;;;;;;5.20;1.30;;;19.30;99.90;;;;;;5011241;28;20041;-63
2022/07/06 07:28:35;;;;;;;5.72;1.55;;;19.50;99.90;;;;;;5027769;28;20042;-63
2022/07/06 07:31:00;;;;;;;4.28;1.17;;;19.80;99.90;;;;;;5011338;28;20045;-63
2022/07/06 07:33:26;;;;;;;2.60;1.10;;;20.00;99.90;;;;;;5014459;28;20025;-63
2022/07/06 07:35:52;;;;;;;6.30;1.25;;;20.00;99.90;;;;;;5010417;28;20049;-63
2022/07/06 07:38:17;;;;;;;3.40;1.05;;;20.10;99.90;;;;;;5029649;28;20451;-62
2022/07/06 07:40:43;;;;;;;1.73;0.57;;;19.80;99.90;;;;;;5027998;28;20080;-61
2022/07/06 07:43:09;;;;;;;2.88;0.50;;;19.70;99.80;;;;;;5011129;28;20458;-62
2022/07/06 07:45:34;;;;;;;1.35;0.77;;;19.40;99.90;;;;;;5030638;28;20471;-62
2022/07/06 07:48:00;;;;;;;1.95;0.90;;;19.50;99.90;;;;;;5031272;28;20041;-62
2022/07/06 07:50:26;;;;;;;4.05;1.00;;;19.60;99.90;;;;;;5031646;28;20458;-61
2022/07/06 07:52:52;;;;;;;4.45;0.73;;;19.50;99.90;;;;;;5027481;28;20045;-62
2022/07/06 07:55:18;;;;;;;3.08;0.80;;;19.50;99.90;;;;;;5029177;28;20136;-62
2022/07/06 07:57:43;;;;;;;4.00;0.85;;;19.40;99.90;;;;;;5028970;28;20139;-62
2022/07/06 08:00:10;;;;;;;6.30;1.33;;;19.30;99.90;;;;;;5013608;28;20120;-62
2022/07/06 08:02:36;;;;;;;4.63;0.95;;;19.20;99.90;;;;;;5029119;28;20451;-62
2022/07/06 08:05:03;;;;;;;6.05;1.30;;;19.20;99.90;;;;;;5024494;28;20045;-61
2022/07/06 08:07:29;;;;;;;6.20;1.23;;;19.20;99.90;;;;;;5025676;28;20064;-62
2022/07/06 08:09:55;;;;;;;3.55;1.00;;;19.40;99.90;;;;;;5030287;28;20041;-63
2022/07/06 08:12:21;;;;;;;2.50;0.80;;;19.30;99.90;;;;;;5024532;28;20037;-63
2022/07/06 08:14:47;;;;;;;4.32;0.85;;;19.10;99.90;;;;;;5026633;28;20390;-62
2022/07/06 08:17:12;;;;;;;2.75;0.80;;;18.90;99.90;;;;;;5024033;28;20183;-63
2022/07/06 08:19:38;;;;;;;2.67;0.60;;;18.70;99.90;;;;;;5012313;28;20109;-62
2022/07/06 08:22:06;;;;;;;3.47;0.80;;;18.70;99.90;;;;;;5043084;28;20049;-62
2022/07/06 08:24:36;;;;;;;4.45;0.68;;;19.00;99.90;;;;;;5030667;28;20056;-62
2022/07/06 08:27:03;;;;;;;2.78;0.80;;;19.20;99.90;;;;;;5050166;28;20403;-62
2022/07/06 08:29:29;;;;;;;3.25;0.82;;;19.50;99.90;;;;;;5045299;28;20394;-63
2022/07/06 08:31:55;;;;;;;0.82;0.60;;;19.50;99.90;;;;;;5029609;28;20037;-62
2022/07/06 08:34:21;;;;;;;3.55;0.90;;;19.60;99.90;;;;;;5026530;28;20114;-63
2022/07/06 08:36:46;;;;;;;2.78;0.63;;;19.50;99.90;;;;;;5026955;28;20132;-62
2022/07/06 08:39:12;;;;;;;5.00;0.70;;;19.30;99.90;;;;;;5031807;28;20060;-63
2022/07/06 08:41:41;;;;;;;3.85;0.70;;;19.40;99.90;;;;;;5035948;28;20082;-62
2022/07/06 08:44:08;;;;;;;4.05;0.70;;;19.30;99.90;;;;;;5054881;28;20429;-62
2022/07/06 08:46:38;;;;;;;1.88;0.60;;;19.30;99.90;;;;;;5034592;28;20415;-62
2022/07/06 08:49:06;;;;;;;1.60;0.60;;;19.40;99.90;;;;;;5034090;28;20037;-62
2022/07/06 08:51:32;;;;;;;1.58;0.90;;;19.60;99.90;;;;;;5031126;28;20029;-62
2022/07/06 08:53:58;;;;;;;2.92;0.65;;;19.50;99.90;;;;;;5034274;28;20041;-62
2022/07/06 08:56:24;;;;;;;2.03;0.65;;;19.30;99.90;;;;;;5020514;28;20091;-62
2022/07/06 08:58:50;;;;;;;4.28;0.75;;;19.30;99.90;;;;;;5037127;28;20466;-62
2022/07/06 09:01:17;;;;;;;4.50;0.90;;;19.30;99.90;;;;;;5036416;28;20041;-62
2022/07/06 09:03:45;;;;;;;3.40;0.70;;;19.50;99.90;;;;;;5054468;28;20108;-62
2022/07/06 09:06:16;;;;;;;2.38;0.93;;;19.80;99.90;;;;;;5054216;28;20044;-62
2022/07/06 09:08:44;;;;;;;1.58;0.77;;;20.10;99.60;;;;;;5031261;28;20041;-62
2022/07/06 09:11:09;;;;;;;2.67;1.00;;;20.10;99.10;;;;;;5049741;28;20117;-62
2022/07/06 09:13:35;;;;;;;3.03;0.70;;;19.90;98.90;;;;;;5032579;28;20127;-62
2022/07/06 09:16:12;;;;;;;2.65;0.80;;;19.60;99.30;;;;;;5032344;28;20106;-62
2022/07/06 09:18:39;;;;;;;2.70;1.00;;;19.30;99.90;;;;;;5034037;28;20073;-62
2022/07/06 09:21:08;;;;;;;4.03;0.75;;;19.30;99.90;;;;;;5044655;28;20049;-61
2022/07/06 09:23:34;;;;;;;2.78;0.65;;;19.40;99.90;;;;;;5034689;28;20127;-62
2022/07/06 09:26:07;;;;;;;3.17;0.60;;;19.50;99.70;;;;;;5042675;28;20474;-63
2022/07/06 09:28:44;;;;;;;2.65;0.52;;;19.70;99.20;;;;;;5033082;28;20037;-62
2022/07/06 09:31:10;;;;;;;1.70;0.70;;;19.90;98.40;;;;;;5034644;28;20117;-61
2022/07/06 09:33:36;;;;;;;3.45;0.60;;;20.00;98.30;;;;;;5022038;28;20542;-63
2022/07/06 09:36:03;;;;;;;2.90;1.00;;;20.40;98.40;;;;;;5039931;28;20038;-64
2022/07/06 09:38:29;;;;;;;3.78;0.80;;;20.50;98.50;;;;;;5042411;28;20029;-62
2022/07/06 09:40:55;;;;;;;3.80;1.27;;;20.30;98.60;;;;;;5024101;28;20041;-62
2022/07/06 09:43:22;;;;;;;4.03;1.02;;;20.00;99.10;;;;;;5025996;28;20041;-63
2022/07/06 09:45:55;;;;;;;4.35;1.60;;;19.90;99.40;;;;;;5040211;28;20040;-62
2022/07/06 09:48:24;;;;;;;3.17;0.75;;;19.60;98.60;;;;;;5017977;28;20041;-63
2022/07/06 09:50:53;;;;;;;2.35;0.75;;;19.40;98.30;;;;;;5018273;28;20044;-62
2022/07/06 09:53:20;;;;;;;2.08;0.60;;;19.50;98.50;;;;;;5008445;28;20137;-63
2022/07/06 09:55:48;;;;;;;4.55;0.80;;;19.50;98.60;;;;;;5017153;28;20113;-62
2022/07/06 09:58:14;;;;;;;3.00;0.85;;;19.80;98.70;;;;;;5035819;28;20506;-62
2022/07/06 10:00:41;;;;;;;5.32;1.50;;;20.10;99.00;;;;;;5024938;28;20045;-62
2022/07/06 10:03:08;;;;;;;4.30;1.25;;;20.20;99.10;;;;;;5007442;28;20045;-62
2022/07/06 10:05:40;;;;;;;7.80;1.80;;;20.00;99.20;;;;;;5019319;28;20087;-62
2022/07/06 10:08:09;;;;;;;3.58;0.88;;;20.00;99.40;;;;;;5035149;28;20037;-62
2022/07/06 10:10:39;;;;;;;6.30;1.50;;;20.00;99.60;;;;;;5022269;28;20041;-63
2022/07/06 10:13:06;;;;;;;3.38;0.80;;;19.90;99.70;;;;;;5023917;28;20048;-63
2022/07/06 10:15:32;;;;;;;2.03;0.75;;;20.10;99.50;;;;;;5040388;28;20032;-62
2022/07/06 10:18:02;;;;;;;3.53;0.70;;;20.20;99.10;;;;;;5022055;28;20055;-63
2022/07/06 10:20:31;;;;;;;4.07;0.88;;;20.50;98.80;;;;;;5041916;28;20091;-62
2022/07/06 10:23:00;;;;;;;3.03;1.20;;;20.70;98.40;;;;;;5019302;28;20136;-62
2022/07/06 10:25:27;;;;;;;4.35;1.33;;;20.70;98.50;;;;;;5017384;28;20115;-65
2022/07/06 10:27:53;;;;;;;3.97;1.05;;;20.80;98.90;;;;;;5027858;28;20037;-62
2022/07/06 10:30:22;;;;;;;3.42;1.00;;;20.90;99.00;;;;;;4998830;28;20100;-63
2022/07/06 10:32:50;;;;;;;5.00;1.08;;;21.00;98.60;;;;;;4998070;28;20045;-63
2022/07/06 10:35:19;;;;;;;3.47;0.75;;;20.90;98.50;;;;;;5040428;28;20079;-62
2022/07/06 10:38:02;;;;;;;3.25;0.80;;;20.80;98.30;;;;;;5041273;28;20033;-62
2022/07/06 10:43:17;;;;;;;3.25;0.80;;;20.90;97.80;;;;;;5040541;28;20131;-62
2022/07/06 10:45:45;;;;;;;1.90;0.70;;;21.00;98.00;;;;;;5044242;28;20049;-62
2022/07/06 10:48:11;;;;;;;5.47;1.02;;;21.20;97.50;;;;;;5018982;28;20351;-62
2022/07/06 10:50:43;;;;;;;4.70;1.15;;;21.30;97.90;;;;;;5020197;28;20029;-62
2022/07/06 10:53:14;;;;;;;4.00;1.23;;;21.30;97.90;;;;;;5025289;28;20051;-62
2022/07/06 10:55:47;;;;;;;3.95;1.08;;;21.10;98.20;;;;;;5018966;28;20294;-62
2022/07/06 10:58:14;;;;;;;5.90;1.50;;;21.10;97.90;;;;;;5015436;28;20137;-62
2022/07/06 11:00:54;;;;;;;4.47;0.85;;;21.20;97.60;;;;;;5040263;28;20051;-62
2022/07/06 11:03:43;;;;;;;5.55;1.05;;;21.40;97.50;;;;;;5039363;28;20046;-62
2022/07/06 11:06:09;;;;;;;4.60;1.25;;;21.20;97.20;;;;;;5013546;28;20053;-62
2022/07/06 11:08:55;;;;;;;1.95;0.70;;;20.90;97.90;;;;;;5034938;28;20112;-61
2022/07/06 11:11:44;;;;;;;1.58;0.88;;;20.60;98.20;;;;;;5033762;28;20359;-62
2022/07/06 11:14:17;;;;;;;3.00;0.80;;;20.70;98.40;;;;;;5023969;28;20403;-61
2022/07/06 11:16:49;;;;;;;1.85;0.70;;;21.10;98.10;;;;;;5030889;28;20045;-62
2022/07/06 11:19:20;;;;;;;5.22;0.82;;;21.20;96.90;;;;;;5026820;28;20061;-62
2022/07/06 11:21:59;;;;;;;2.33;0.70;;;21.20;97.00;;;;;;5015459;28;20117;-61
2022/07/06 11:24:30;;;;;;;4.85;0.95;;;21.40;96.80;;;;;;5027919;28;20408;-63
2022/07/06 11:26:57;;;;;;;3.45;1.05;;;21.20;96.60;;;;;;5025780;28;20072;-63
2022/07/06 11:29:24;;;;;;;3.33;0.70;;;21.20;97.00;;;;;;5031166;28;20048;-62
2022/07/06 11:31:56;;;;;;;4.40;1.20;;;21.20;96.70;;;;;;5006589;28;20042;-64
2022/07/06 11:34:31;;;;;;;4.07;0.80;;;21.10;96.60;;;;;;5029134;28;20121;-62
2022/07/06 11:37:03;;;;;;;1.60;0.80;;;21.20;95.90;;;;;;5027202;28;20041;-61
2022/07/06 11:39:30;;;;;;;2.70;1.00;;;21.20;96.00;;;;;;5025660;28;20033;-61
2022/07/06 11:41:57;;;;;;;3.72;0.70;;;21.40;95.80;;;;;;5025313;28;20042;-62
2022/07/06 11:44:22;;;;;;;4.55;1.23;;;21.50;95.40;;;;;;5012222;28;20038;-62
2022/07/06 11:46:49;;;;;;;1.60;0.80;;;21.60;95.00;;;;;;5026715;28;20485;-62
2022/07/06 11:49:15;;;;;;;4.45;1.40;;;21.50;95.30;;;;;;5027353;28;20045;-62
2022/07/06 11:51:42;;;;;;;1.77;0.60;;;21.60;95.50;;;;;;5028997;28;20566;-62
2022/07/06 11:54:17;;;;;;;3.30;0.90;;;21.80;95.70;;;;;;5012270;28;20518;-62
2022/07/06 11:57:00;;;;;;;3.25;0.98;;;21.80;95.00;;;;;;5009774;28;20154;-62
2022/07/06 11:59:28;;;;;;;2.53;0.93;;;21.80;94.40;;;;;;5028617;28;20069;-62
2022/07/06 12:02:20;;;;;;;1.98;0.68;;;21.80;94.70;;;;;;5007613;28;20043;-62
2022/07/06 12:04:46;;;;;;;4.07;1.23;;;21.80;95.20;;;;;;5022533;28;20056;-62
2022/07/06 12:07:14;;;;;;;2.70;0.73;;;21.90;95.40;;;;;;5003310;28;20045;-62
2022/07/06 12:09:41;;;;;;;6.60;1.60;;;21.90;95.30;;;;;;5012052;28;20034;-62
2022/07/06 12:12:09;;;;;;;3.28;0.70;;;22.00;95.70;;;;;;5017705;28;20060;-62
2022/07/06 12:14:37;;;;;;;2.50;0.70;;;22.00;95.50;;;;;;5007905;28;20128;-63
2022/07/06 12:17:23;;;;;;;3.90;1.00;;;22.10;95.40;;;;;;5008931;28;20030;-62
2022/07/06 12:19:54;;;;;;;3.60;1.05;;;21.80;95.20;;;;;;5013167;28;20068;-62
2022/07/06 12:22:25;;;;;;;2.58;0.80;;;22.00;95.60;;;;;;5031943;28;20049;-63
2022/07/06 12:24:50;;;;;;;4.72;1.20;;;21.90;95.70;;;;;;5031529;28;20042;-62
2022/07/06 12:27:19;;;;;;;1.88;0.70;;;21.80;95.50;;;;;;5028817;28;20338;-62
2022/07/06 12:29:45;;;;;;;4.88;1.02;;;21.70;95.90;;;;;;5016662;28;20037;-62
2022/07/06 12:32:19;;;;;;;3.10;1.02;;;21.90;96.40;;;;;;5014395;28;20431;-62
2022/07/06 12:34:45;;;;;;;3.15;1.08;;;22.10;96.30;;;;;;5031697;28;20042;-62
2022/07/06 12:37:12;;;;;;;3.38;0.82;;;22.00;96.00;;;;;;5028186;28;20057;-62
2022/07/06 12:39:47;;;;;;;2.38;0.80;;;22.10;96.10;;;;;;5015284;28;20049;-62
2022/07/06 12:42:17;;;;;;;4.55;1.10;;;22.30;95.80;;;;;;5030482;28;20033;-63
2022/07/06 12:44:52;;;;;;;2.50;0.93;;;22.30;95.60;;;;;;5003524;28;20048;-62
2022/07/06 12:47:23;;;;;;;2.63;0.85;;;22.50;95.40;;;;;;5033847;28;20037;-62
2022/07/06 12:50:10;;;;;;;1.65;0.80;;;22.60;95.10;;;;;;5032125;28;20048;-61
2022/07/06 12:52:36;;;;;;;2.72;0.77;;;22.60;94.50;;;;;;5025954;28;20054;-63
2022/07/06 12:55:03;;;;;;;3.45;1.13;;;22.60;94.70;;;;;;5030584;28;20029;-62
2022/07/06 12:57:48;;;;;;;7.55;1.60;;;22.60;93.80;;;;;;5033486;28;20041;-62